Time;durP1;ratioP1;P1;durP2;ratioP2;P2;SDS_P1;SDS_P2;PMS_P1;PMS_P2;Temp;Humidity;BMP_temperature;BMP_pressure;BME280_temperature;BME280_humidity;BME280_pressure;Samples;Min_cycle;Max_cycle;Signal;HPM_P1;HPM_P2
2022/11/11 00:00:02;;;;;;;;;8.50;6.25;;;;;12.94;66.59;102233.16;5015156;28;45620;-74
2022/11/11 00:02:50;;;;;;;;;9.00;8.00;;;;;12.89;66.54;102229.09;5014948;28;46444;-77
2022/11/11 00:05:21;;;;;;;;;7.25;7.00;;;;;12.82;66.50;102223.31;5014689;28;45977;-78
2022/11/11 00:07:47;;;;;;;;;7.75;6.75;;;;;12.90;66.30;102230.78;4996438;28;45549;-77
2022/11/11 00:10:13;;;;;;;;;7.00;5.50;;;;;12.79;66.66;102217.38;5014900;28;45600;-74
2022/11/11 00:12:38;;;;;;;;;5.00;5.00;;;;;12.89;66.61;102229.09;5014472;28;47752;-76
2022/11/11 00:15:05;;;;;;;;;7.50;7.50;;;;;12.88;66.48;102232.63;5014736;28;45588;-74
2022/11/11 00:25:42;;;;;;;;;8.00;7.00;;;;;12.74;67.05;102219.41;5014137;28;45824;-76
2022/11/11 00:28:37;;;;;;;;;8.50;7.75;;;;;12.59;66.86;102190.34;4996067;28;45634;-78
2022/11/11 00:31:14;;;;;;;;;8.50;8.50;;;;;12.51;66.98;102181.19;4995463;28;45567;-77
2022/11/11 00:33:39;;;;;;;;;8.50;8.50;;;;;12.50;66.95;102184.75;4996010;28;48059;-75
2022/11/11 00:36:06;;;;;;;;;9.50;9.50;;;;;12.71;67.42;102215.16;5014437;28;45965;-76
2022/11/11 00:38:46;;;;;;;;;11.25;10.00;;;;;12.31;67.33;102150.72;5014528;28;45533;-77
2022/11/11 00:41:46;;;;;;;;;10.75;9.00;;;;;12.71;67.42;102230.06;4996375;28;45728;-77
2022/11/11 00:44:11;;;;;;;;;8.25;7.00;;;;;12.25;67.10;102153.69;5008253;28;46697;-75
2022/11/11 00:52:07;;;;;;;;;8.00;8.00;;;;;12.69;67.46;102253.81;5013936;28;45711;-77
2022/11/11 00:54:32;;;;;;;;;9.00;8.25;;;;;12.57;67.45;102239.56;5014054;28;46517;-77
2022/11/11 00:57:12;;;;;;;;;8.00;8.00;;;;;12.69;67.46;102269.59;5013900;28;45901;-78
2022/11/11 00:59:58;;;;;;;;;9.00;8.00;;;;;12.66;67.29;102250.50;5014126;28;45573;-76
2022/11/11 01:02:24;;;;;;;;;9.25;9.25;;;;;12.71;67.66;102265.09;5013937;28;45576;-77
2022/11/11 01:04:49;;;;;;;;;9.50;6.50;;;;;12.62;67.73;102252.47;5013420;28;46506;-78
2022/11/11 01:07:15;;;;;;;;;10.50;10.00;;;;;12.68;67.59;102252.13;5012948;28;45755;-78
2022/11/11 01:09:40;;;;;;;;;11.50;9.50;;;;;12.68;67.68;102240.78;5013304;28;46080;-77
2022/11/11 01:12:06;;;;;;;;;8.75;7.00;;;;;12.74;67.62;102250.97;5013023;28;45628;-78
2022/11/11 01:15:00;;;;;;;;;;;;;;;;;;;;;
2022/11/11 01:17:34;;;;;;;;;10.25;9.00;;;;;12.54;67.38;102207.31;5011426;28;76396;-77
2022/11/11 01:19:59;;;;;;;;;8.00;6.50;;;;;12.78;67.29;102252.50;5012989;28;45902;-75
2022/11/11 01:22:27;;;;;;;;;6.75;6.75;;;;;12.80;67.51;102247.97;5012980;28;45676;-77
2022/11/11 01:24:52;;;;;;;;;8.25;7.50;;;;;12.70;67.40;102228.38;5012994;28;46932;-77
2022/11/11 01:27:18;;;;;;;;;9.00;7.50;;;;;12.72;67.34;102231.78;5012914;28;46187;-75
2022/11/11 01:29:43;;;;;;;;;8.50;7.00;;;;;12.78;66.94;102237.56;5012927;28;45716;-75
2022/11/11 01:32:09;;;;;;;;;8.00;7.75;;;;;12.77;66.97;102233.22;5013150;28;45850;-77
2022/11/11 01:34:34;;;;;;;;;8.00;7.00;;;;;12.77;67.05;102240.25;5012648;28;46337;-75
2022/11/11 01:36:59;;;;;;;;;9.25;7.25;;;;;12.72;67.17;102237.88;5012430;28;46179;-76
2022/11/11 01:39:25;;;;;;;;;8.75;7.50;;;;;12.73;66.98;102236.97;5012975;28;45728;-75
2022/11/11 01:41:50;;;;;;;;;9.75;7.75;;;;;12.74;67.02;102243.06;5013198;28;45788;-76
2022/11/11 01:44:43;;;;;;;;;7.50;7.00;;;;;12.69;67.04;102239.81;5012265;28;46550;-76
2022/11/11 01:47:09;;;;;;;;;9.00;8.00;;;;;12.66;67.00;102242.63;5013624;28;46187;-76
2022/11/11 01:49:48;;;;;;;;;8.00;7.75;;;;;12.65;66.93;102251.44;5016046;28;45662;-77
2022/11/11 01:52:41;;;;;;;;;9.00;7.25;;;;;12.63;67.04;102253.31;5016293;28;45802;-76
2022/11/11 01:55:12;;;;;;;;;8.50;8.00;;;;;12.61;67.23;102263.91;5016254;28;47135;-75
2022/11/11 01:57:56;;;;;;;;;8.50;7.00;;;;;12.59;66.89;102269.22;5015846;28;46316;-77
2022/11/11 02:00:22;;;;;;;;;8.50;7.75;;;;;12.57;67.20;102271.13;5015940;28;45809;-75
2022/11/11 02:02:52;;;;;;;;;9.00;7.75;;;;;12.52;67.27;102256.50;4998304;28;46209;-75
2022/11/11 02:08:09;;;;;;;;;8.75;8.00;;;;;12.58;67.24;102266.69;5015822;28;45871;-75
2022/11/11 02:10:35;;;;;;;;;9.75;8.50;;;;;12.53;67.01;102252.94;5016001;28;45581;-78
2022/11/11 02:15:44;;;;;;;;;9.75;8.25;;;;;12.51;67.03;102260.06;5015750;28;45638;-77
2022/11/11 02:18:10;;;;;;;;;9.00;8.00;;;;;12.55;67.23;102256.34;5015656;28;45645;-76
2022/11/11 02:20:39;;;;;;;;;8.00;7.25;;;;;12.54;67.12;102257.25;5015947;28;45507;-75
2022/11/11 02:23:30;;;;;;;;;8.00;5.50;;;;;12.58;67.01;102246.50;5015765;28;45934;-76
2022/11/11 02:25:58;;;;;;;;;10.00;8.75;;;;;12.59;67.18;102253.47;5015380;28;47528;-76
2022/11/11 02:28:26;;;;;;;;;10.25;8.25;;;;;12.59;66.98;102252.59;5015810;28;46163;-76
2022/11/11 02:30:51;;;;;;;;;8.25;8.00;;;;;12.53;67.06;102252.94;5015170;28;45609;-75
2022/11/11 02:33:17;;;;;;;;;8.00;8.00;;;;;12.52;67.22;102249.44;5015527;28;45803;-75
2022/11/11 02:35:47;;;;;;;;;9.75;8.25;;;;;12.44;67.16;102240.28;5015590;28;46791;-75
2022/11/11 02:38:12;;;;;;;;;9.50;7.75;;;;;12.50;67.22;102242.59;5015394;28;45627;-75
2022/11/11 02:43:28;;;;;;;;;11.00;8.00;;;;;12.46;67.08;102241.91;5015337;28;45691;-75
2022/11/11 02:45:54;;;;;;;;;7.75;7.50;;;;;12.48;67.01;102241.81;5015275;28;46518;-76
2022/11/11 02:48:19;;;;;;;;;8.00;7.00;;;;;12.48;67.10;102254.94;5015281;28;46151;-76
2022/11/11 02:50:45;;;;;;;;;7.50;5.25;;;;;12.43;67.04;102241.19;5015134;28;45583;-76
2022/11/11 02:53:11;;;;;;;;;9.25;8.75;;;;;12.48;67.12;102249.69;5015220;28;45711;-76
2022/11/11 02:55:36;;;;;;;;;9.75;9.00;;;;;12.48;67.04;102245.28;5014854;28;46320;-75
2022/11/11 02:58:01;;;;;;;;;8.75;7.75;;;;;12.40;67.34;102233.50;5014443;28;46001;-77
2022/11/11 03:00:27;;;;;;;;;8.75;8.75;;;;;12.48;67.22;102249.69;5014937;28;45728;-76
2022/11/11 03:02:52;;;;;;;;;8.50;7.00;;;;;12.44;66.98;102242.91;5014382;28;45661;-75
2022/11/11 03:05:18;;;;;;;;;10.00;8.00;;;;;12.42;67.13;102248.22;5014436;28;47303;-75
2022/11/11 03:07:43;;;;;;;;;8.50;8.25;;;;;12.41;67.28;102245.72;5015003;28;45687;-74
2022/11/11 03:10:09;;;;;;;;;8.00;7.00;;;;;12.44;67.21;102245.53;5015201;28;45628;-75
2022/11/11 03:12:34;;;;;;;;;8.50;7.50;;;;;12.45;67.21;102245.47;5015154;28;45639;-76
2022/11/11 03:15:00;;;;;;;;;7.50;7.00;;;;;12.43;67.21;102238.56;5014842;28;46376;-77
2022/11/11 03:17:40;;;;;;;;;8.25;7.75;;;;;12.39;66.98;102226.53;5014540;28;45719;-77
2022/11/11 03:23:00;;;;;;;;;8.75;7.00;;;;;12.42;67.19;102231.59;5014701;28;45692;-77
2022/11/11 03:25:37;;;;;;;;;10.00;7.00;;;;;12.41;67.18;102233.41;5014517;28;46616;-76
2022/11/11 03:28:24;;;;;;;;;7.25;7.00;;;;;12.41;67.12;102229.94;5014464;28;47200;-76
2022/11/11 03:30:50;;;;;;;;;8.75;8.00;;;;;12.41;67.14;102235.19;5014307;28;45729;-77
2022/11/11 03:33:17;;;;;;;;;9.25;8.25;;;;;12.38;66.96;102238.81;5014320;28;45622;-76
2022/11/11 03:35:48;;;;;;;;;8.75;8.75;;;;;12.28;66.85;102219.22;5014617;28;45557;-77
2022/11/11 03:38:23;;;;;;;;;7.50;7.00;;;;;12.41;67.05;102248.34;5014514;28;46106;-76
2022/11/11 03:40:56;;;;;;;;;9.00;8.50;;;;;12.35;67.07;102230.25;4998379;28;45727;-75
2022/11/11 03:43:28;;;;;;;;;9.00;8.25;;;;;12.40;66.98;102246.63;5014625;28;45730;-77
2022/11/11 03:45:56;;;;;;;;;8.00;8.00;;;;;12.39;67.08;102239.66;5013985;28;47522;-76
2022/11/11 03:48:22;;;;;;;;;7.50;7.00;;;;;12.36;66.72;102240.66;5014058;28;46461;-75
2022/11/11 03:50:48;;;;;;;;;11.75;9.00;;;;;12.36;67.02;102227.53;5014417;28;45751;-75
2022/11/11 03:53:15;;;;;;;;;8.50;8.50;;;;;12.39;66.80;102242.31;5014065;28;45660;-74
2022/11/11 03:55:41;;;;;;;;;8.75;8.75;;;;;12.35;66.79;102235.50;5014334;28;45632;-76
2022/11/11 03:58:07;;;;;;;;;9.00;9.00;;;;;12.40;67.00;102239.59;5014264;28;45920;-77
2022/11/11 04:00:34;;;;;;;;;9.75;8.75;;;;;12.41;66.59;102245.72;4996213;28;45742;-77
2022/11/11 04:11:45;;;;;;;;;10.50;8.00;;;;;12.37;67.06;102258.13;5013641;28;45962;-76
2022/11/11 04:16:57;;;;;;;;;8.75;8.00;;;;;12.37;67.23;102265.19;5013513;28;45810;-78
2022/11/11 04:25:49;;;;;;;;;9.75;8.00;;;;;12.32;66.93;102257.53;5013623;28;45576;-77
2022/11/11 04:31:02;;;;;;;;;8.75;8.75;;;;;12.29;66.89;102252.44;5013383;28;46107;-77
2022/11/11 04:33:28;;;;;;;;;10.00;9.00;;;;;12.34;66.82;102257.47;4995762;28;45603;-75
2022/11/11 04:35:53;;;;;;;;;8.50;8.00;;;;;12.27;67.00;102245.56;5013839;28;45763;-77
2022/11/11 04:41:40;;;;;;;;;9.00;7.25;;;;;12.29;66.80;102236.69;5013609;28;45829;-77
2022/11/11 04:46:50;;;;;;;;;11.00;9.00;;;;;12.29;67.20;102249.81;5013254;28;45599;-76
2022/11/11 04:49:16;;;;;;;;;8.75;8.00;;;;;12.28;67.02;102255.16;5013253;28;46423;-77
2022/11/11 04:57:52;;;;;;;;;8.25;7.25;;;;;12.28;66.99;102261.25;5013380;28;45663;-78
2022/11/11 05:00:18;;;;;;;;;11.50;10.25;;;;;12.28;67.18;102255.16;5012910;28;47398;-77
2022/11/11 05:08:54;;;;;;;;;8.50;8.25;;;;;12.31;67.16;102249.75;5012898;28;45778;-77
2022/11/11 05:11:00;;;;;;;;;9.50;8.75;;;;;12.29;67.26;102248.97;5012938;28;45658;-77
2022/11/11 05:21:54;;;;;;;;;9.00;8.50;;;;;12.36;67.13;102250.34;4992330;28;45552;-77
2022/11/11 05:27:04;;;;;;;;;9.25;7.00;;;;;12.30;67.41;102230.50;4993214;28;45802;-75
2022/11/11 05:29:29;;;;;;;;;7.50;7.50;;;;;12.35;67.39;102243.41;4993202;28;45850;-75
2022/11/11 05:31:54;;;;;;;;;8.50;7.25;;;;;12.35;67.22;102243.41;4992678;28;46710;-78
2022/11/11 05:34:20;;;;;;;;;5.00;4.00;;;;;12.33;67.13;102253.97;4975078;28;46964;-77
2022/11/11 05:36:45;;;;;;;;;11.50;9.00;;;;;12.31;67.49;102253.19;4992966;28;45645;-77
2022/11/11 05:39:10;;;;;;;;;5.50;4.50;;;;;12.31;67.49;102257.63;4993335;28;45727;-77
2022/11/11 05:41:36;;;;;;;;;15.00;8.00;;;;;12.29;67.47;102252.44;4993011;28;45599;-74
2022/11/11 05:44:01;;;;;;;;;8.75;7.75;;;;;12.27;67.45;102250.81;4993021;28;45555;-77
2022/11/11 05:46:26;;;;;;;;;8.00;7.50;;;;;12.26;67.37;102257.84;4992921;28;45687;-77
2022/11/11 05:51:35;;;;;;;;;11.50;8.00;;;;;12.25;67.55;102244.81;4992766;28;45568;-77
2022/11/11 05:54:01;;;;;;;;;7.75;7.00;;;;;12.25;67.52;102248.28;4992704;28;45839;-77
2022/11/11 05:56:26;;;;;;;;;9.50;8.25;;;;;12.22;67.32;102243.19;4992981;28;45771;-76
2022/11/11 05:58:52;;;;;;;;;7.75;5.00;;;;;12.21;67.17;102244.09;4993082;28;45683;-76
2022/11/11 06:01:17;;;;;;;;;10.00;7.75;;;;;12.26;67.43;102243.84;4974878;28;47608;-76
2022/11/11 06:03:43;;;;;;;;;9.50;7.00;;;;;12.23;67.03;102250.13;4992299;28;47280;-76
2022/11/11 06:06:08;;;;;;;;;8.00;7.25;;;;;12.22;66.89;102248.44;4992736;28;45759;-77
2022/11/11 06:08:33;;;;;;;;;7.25;5.00;;;;;12.23;67.12;102250.13;4992717;28;45627;-77
2022/11/11 06:10:59;;;;;;;;;11.00;9.00;;;;;12.16;67.23;102240.84;4974640;28;47919;-76
2022/11/11 06:13:24;;;;;;;;;8.25;8.00;;;;;12.17;67.09;102245.19;4992506;28;45965;-75
2022/11/11 06:15:49;;;;;;;;;8.50;7.50;;;;;12.21;67.13;102257.25;4974858;28;45642;-76
2022/11/11 06:18:15;;;;;;;;;7.25;6.00;;;;;12.20;67.28;102263.41;5008679;28;45633;-77
2022/11/11 06:20:43;;;;;;;;;8.00;6.75;;;;;12.21;67.07;102267.75;5012516;28;45706;-76
2022/11/11 06:23:09;;;;;;;;;6.00;4.75;;;;;12.22;67.02;102268.59;5011737;28;47077;-77
2022/11/11 06:28:18;;;;;;;;;4.75;4.75;;;;;12.17;67.18;102263.59;5012292;28;45588;-77
2022/11/11 06:30:50;;;;;;;;;7.75;5.75;;;;;12.23;67.15;102278.19;5011871;28;46534;-74
2022/11/11 06:33:28;;;;;;;;;4.75;4.25;;;;;12.23;66.87;102272.94;5013666;28;46119;-75
2022/11/11 06:35:53;;;;;;;;;8.25;8.00;;;;;12.22;66.65;102266.81;4997412;28;45834;-76
2022/11/11 06:38:19;;;;;;;;;10.00;7.00;;;;;12.19;66.92;102275.72;5015304;28;45723;-77
2022/11/11 06:40:44;;;;;;;;;7.00;6.75;;;;;12.22;67.15;102285.22;5015456;28;46636;-76
2022/11/11 06:43:10;;;;;;;;;7.00;6.25;;;;;12.21;66.72;102273.00;5015195;28;46240;-74
2022/11/11 06:45:36;;;;;;;;;5.25;5.25;;;;;12.17;67.12;102274.09;5015023;28;45634;-76
2022/11/11 06:48:03;;;;;;;;;8.00;6.50;;;;;12.19;66.83;102286.25;5015360;28;45651;-78
2022/11/11 06:50:29;;;;;;;;;5.00;4.50;;;;;12.15;67.16;102287.31;5015278;28;45777;-77
2022/11/11 06:52:55;;;;;;;;;4.00;4.00;;;;;12.13;67.21;102301.47;5014863;28;46179;-75
2022/11/11 06:58:41;;;;;;;;;4.75;4.75;;;;;12.10;66.88;102302.44;5015329;28;45632;-77
2022/11/11 07:01:08;;;;;;;;;6.75;4.00;;;;;12.11;67.08;102312.03;4997093;28;47396;-75
2022/11/11 07:03:34;;;;;;;;;8.00;5.25;;;;;12.13;67.13;102307.56;5014687;28;47271;-76
2022/11/11 07:06:01;;;;;;;;;8.50;7.25;;;;;12.08;67.30;102304.31;5014810;28;45758;-76
2022/11/11 07:08:27;;;;;;;;;8.00;6.00;;;;;12.13;67.33;102311.97;5015146;28;45705;-75
2022/11/11 07:10:52;;;;;;;;;7.00;5.50;;;;;12.08;67.24;102300.84;5014673;28;46521;-77
2022/11/11 07:13:18;;;;;;;;;6.50;5.00;;;;;12.09;67.24;102297.28;5014801;28;45633;-76
2022/11/11 07:15:44;;;;;;;;;7.50;6.25;;;;;12.15;67.50;102303.06;5014805;28;45634;-75
2022/11/11 07:18:10;;;;;;;;;8.25;7.00;;;;;12.15;67.27;102302.22;5009207;28;45768;-77
2022/11/11 07:20:36;;;;;;;;;6.50;5.50;;;;;12.16;67.12;102288.16;5014955;28;45618;-77
2022/11/11 07:23:02;;;;;;;;;8.75;7.50;;;;;12.10;67.35;102281.44;5014709;28;45529;-76
2022/11/11 07:28:50;;;;;;;;;6.00;6.00;;;;;12.19;67.52;102293.28;5014886;28;45698;-77
2022/11/11 07:31:15;;;;;;;;;8.00;6.00;;;;;12.05;67.37;102265.06;5013107;28;47103;-76
2022/11/11 07:33:40;;;;;;;;;4.25;4.00;;;;;12.16;67.33;102291.63;5014371;28;46177;-77
2022/11/11 07:36:07;;;;;;;;;7.75;5.25;;;;;12.20;67.57;102287.06;5014756;28;45615;-77
2022/11/11 07:38:32;;;;;;;;;3.50;3.00;;;;;12.24;67.44;102287.78;5014394;28;45813;-78
2022/11/11 07:40:57;;;;;;;;;5.00;5.00;;;;;12.18;67.48;102278.44;5014518;28;45656;-75
2022/11/11 07:43:46;;;;;;;;;7.25;6.50;;;;;12.25;67.51;102295.59;5014517;28;45718;-76
2022/11/11 07:46:11;;;;;;;;;8.00;7.25;;;;;12.10;67.29;102257.78;4935949;28;45798;-77
2022/11/11 07:48:39;;;;;;;;;6.25;5.75;;;;;12.16;67.26;102261.88;4953497;28;45677;-75
2022/11/11 07:51:05;;;;;;;;;7.50;7.00;;;;;12.25;67.42;102271.09;4952740;28;46448;-76
2022/11/11 07:53:32;;;;;;;;;8.00;7.25;;;;;12.30;67.21;102276.97;4952636;28;47138;-78
2022/11/11 07:55:58;;;;;;;;;8.25;6.50;;;;;12.24;67.30;102269.38;4953071;28;45651;-77
2022/11/11 07:58:23;;;;;;;;;10.00;7.75;;;;;12.34;67.28;102284.59;4953370;28;45793;-76
2022/11/11 08:00:48;;;;;;;;;7.50;6.25;;;;;12.37;67.08;102284.44;4953217;28;46416;-76
2022/11/11 08:03:15;;;;;;;;;9.00;8.50;;;;;12.39;67.41;102293.09;4952407;28;45934;-77
2022/11/11 08:05:43;;;;;;;;;10.00;8.75;;;;;12.37;67.46;102289.69;4952849;28;45636;-76
2022/11/11 08:08:09;;;;;;;;;7.75;7.25;;;;;12.43;67.60;102291.16;4952953;28;45784;-78
2022/11/11 08:13:56;;;;;;;;;10.25;8.25;;;;;12.43;67.33;102292.00;4952717;28;46035;-78
2022/11/11 08:16:22;;;;;;;;;7.75;7.25;;;;;12.43;67.39;102297.25;4952287;28;45619;-76
2022/11/11 08:18:47;;;;;;;;;12.25;10.00;;;;;12.43;67.66;102286.75;4952874;28;45639;-75
2022/11/11 08:21:12;;;;;;;;;10.50;9.75;;;;;12.07;67.53;102239.56;4952871;28;45697;-75
2022/11/11 08:23:38;;;;;;;;;11.75;10.25;;;;;12.42;67.47;102287.66;4991800;28;45718;-74
2022/11/11 08:26:05;;;;;;;;;10.00;9.00;;;;;12.48;67.41;102297.00;5013665;28;45608;-75
2022/11/11 08:28:33;;;;;;;;;8.75;8.00;;;;;12.46;67.30;102289.22;5014082;28;45831;-75
2022/11/11 08:30:59;;;;;;;;;12.50;9.00;;;;;12.43;67.16;102278.84;5013558;28;46449;-77
2022/11/11 08:33:26;;;;;;;;;10.00;9.00;;;;;12.51;67.45;102291.63;5013700;28;45751;-74
2022/11/11 08:35:53;;;;;;;;;9.50;8.00;;;;;12.47;67.38;102280.38;5013367;28;46085;-75
2022/11/11 08:38:20;;;;;;;;;10.00;9.00;;;;;12.54;67.30;102294.91;5013721;28;45576;-76
2022/11/11 08:44:06;;;;;;;;;8.25;7.75;;;;;12.59;66.94;102299.94;5013101;28;46032;-71
2022/11/11 08:46:32;;;;;;;;;8.25;7.75;;;;;12.60;67.17;102305.13;5013844;28;45656;-75
2022/11/11 08:48:57;;;;;;;;;7.25;7.00;;;;;12.60;67.13;102304.28;5013949;28;45523;-75
2022/11/11 08:51:23;;;;;;;;;10.00;8.25;;;;;12.59;67.21;102298.16;5013026;28;46392;-73
2022/11/11 08:53:51;;;;;;;;;7.50;7.50;;;;;12.62;67.04;102310.31;5013250;28;45614;-77
2022/11/11 08:56:17;;;;;;;;;3.50;3.00;;;;;12.63;67.31;102311.16;4994462;28;45656;-75
2022/11/11 08:59:05;;;;;;;;;10.50;9.50;;;;;12.63;67.04;102319.91;5013288;28;45645;-76
2022/11/11 09:01:39;;;;;;;;;9.75;9.00;;;;;12.51;67.22;102295.09;5011045;28;47209;-75
2022/11/11 09:04:04;;;;;;;;;9.75;9.50;;;;;12.67;67.13;102323.22;5012931;28;46596;-75
2022/11/11 09:06:29;;;;;;;;;14.25;11.25;;;;;12.63;67.13;102318.09;5012904;28;45631;-74
2022/11/11 09:15:04;;;;;;;;;14.25;11.50;;;;;12.69;67.31;102323.97;5012505;28;46043;-78
2022/11/11 09:17:31;;;;;;;;;10.50;8.50;;;;;12.68;66.90;102317.03;5011380;28;45752;-77
2022/11/11 09:19:57;;;;;;;;;11.75;9.75;;;;;12.71;66.79;102317.72;5013354;28;45793;-78
2022/11/11 09:22:22;;;;;;;;;7.50;6.50;;;;;12.71;67.17;102324.75;5012933;28;47633;-78
2022/11/11 09:24:47;;;;;;;;;8.00;8.00;;;;;12.68;67.31;102317.03;5012123;28;46265;-75
2022/11/11 09:27:13;;;;;;;;;9.50;8.50;;;;;12.73;67.01;102325.53;5013198;28;45960;-77
2022/11/11 09:29:38;;;;;;;;;8.00;7.00;;;;;12.71;67.30;102330.00;5013208;28;45574;-77
2022/11/11 09:32:04;;;;;;;;;8.75;7.00;;;;;12.71;67.12;102332.63;5012681;28;46276;-77
2022/11/11 09:34:29;;;;;;;;;7.25;7.00;;;;;12.70;66.98;102325.66;5012574;28;45584;-76
2022/11/11 09:36:55;;;;;;;;;7.00;5.00;;;;;12.72;66.83;102327.31;5012818;28;45931;-78
2022/11/11 09:39:20;;;;;;;;;7.50;4.75;;;;;12.72;67.13;102335.19;5012879;28;45801;-76
2022/11/11 09:41:50;;;;;;;;;7.00;5.00;;;;;12.75;66.58;102342.06;5012669;28;45594;-75
2022/11/11 09:44:52;;;;;;;;;4.00;4.00;;;;;12.75;67.18;102342.06;5012531;28;46299;-76
2022/11/11 09:47:30;;;;;;;;;9.00;6.75;;;;;12.80;66.85;102337.41;5011043;28;45829;-77
2022/11/11 09:50:37;;;;;;;;;5.25;5.25;;;;;12.84;66.99;102334.56;5012745;28;45740;-77
2022/11/11 09:53:05;;;;;;;;;6.75;6.75;;;;;12.87;66.87;102336.16;4951449;28;46574;-75
2022/11/11 09:55:37;;;;;;;;;9.25;9.00;;;;;12.88;66.63;102341.34;4950948;28;46222;-78
2022/11/11 09:58:11;;;;;;;;;8.75;7.50;;;;;12.93;66.85;102346.34;4951652;28;45658;-77
2022/11/11 10:00:42;;;;;;;;;8.25;7.00;;;;;12.94;66.79;102341.03;4951521;28;45688;-76
2022/11/11 10:03:16;;;;;;;;;9.75;8.00;;;;;12.99;66.63;102348.66;4951463;28;45685;-77
2022/11/11 10:05:55;;;;;;;;;11.00;8.50;;;;;12.95;66.47;102332.22;4950738;28;46282;-76
2022/11/11 10:08:32;;;;;;;;;9.00;9.00;;;;;13.05;66.17;102345.72;4952708;28;45899;-77
2022/11/11 10:11:04;;;;;;;;;8.00;6.50;;;;;13.05;65.87;102348.34;4954901;28;45833;-77
2022/11/11 10:13:32;;;;;;;;;7.75;7.00;;;;;13.12;65.74;102355.00;4954673;28;45955;-76
2022/11/11 10:16:34;;;;;;;;;7.25;7.00;;;;;12.80;65.83;102285.66;4954324;28;46546;-76
2022/11/11 10:19:29;;;;;;;;;10.00;8.75;;;;;13.18;65.97;102352.03;4954472;28;45781;-76
2022/11/11 10:22:18;;;;;;;;;9.25;8.00;;;;;13.18;65.93;102348.53;4954439;28;45789;-76
2022/11/11 10:28:14;;;;;;;;;9.75;8.00;;;;;13.21;65.60;102346.63;5015321;28;46109;-75
2022/11/11 10:30:39;;;;;;;;;8.75;7.50;;;;;13.21;65.46;102349.25;5015502;28;45715;-76
2022/11/11 10:33:26;;;;;;;;;7.00;5.75;;;;;13.22;65.53;102345.69;5015346;28;45745;-76
2022/11/11 10:35:54;;;;;;;;;9.25;8.00;;;;;13.06;65.38;102315.00;5014242;28;47015;-78
2022/11/11 10:38:34;;;;;;;;;9.25;8.00;;;;;13.23;65.22;102342.09;5013988;28;47271;-78
2022/11/11 10:44:35;;;;;;;;;10.00;9.50;;;;;13.23;65.23;102328.09;5015069;28;45560;-77
2022/11/11 10:47:23;;;;;;;;;9.00;8.00;;;;;13.28;65.05;102334.81;5013784;28;47237;-78
2022/11/11 10:49:58;;;;;;;;;13.75;10.00;;;;;13.17;64.91;102316.09;5015207;28;46115;-73
2022/11/11 10:52:37;;;;;;;;;10.75;8.25;;;;;13.31;65.28;102339.91;5013343;28;45600;-77
2022/11/11 10:55:08;;;;;;;;;9.00;7.50;;;;;13.32;65.20;102341.63;5015021;28;45699;-77
2022/11/11 10:58:26;;;;;;;;;11.25;9.75;;;;;13.26;65.09;102327.94;5015004;28;45615;-77
2022/11/11 11:00:53;;;;;;;;;9.75;9.25;;;;;13.27;65.01;102329.66;5015071;28;47337;-78
2022/11/11 11:03:26;;;;;;;;;14.00;10.25;;;;;13.35;65.12;102349.34;5014793;28;45793;-78
2022/11/11 11:05:58;;;;;;;;;16.25;15.00;;;;;13.38;64.85;102350.97;5014764;28;45572;-77
2022/11/11 11:08:30;;;;;;;;;14.00;12.50;;;;;13.38;64.96;102346.56;5014779;28;46589;-75
2022/11/11 11:10:59;;;;;;;;;13.33;13.33;;;;;13.44;65.03;102335.66;5013347;28;46554;-76
2022/11/11 11:13:54;;;;;;;;;11.75;11.50;;;;;13.48;64.56;102340.78;5014752;28;45660;-77
2022/11/11 11:16:35;;;;;;;;;12.00;10.75;;;;;13.43;64.56;102322.59;4997581;28;45589;-76
2022/11/11 11:19:24;;;;;;;;;12.50;11.50;;;;;13.52;64.77;102329.13;5013907;28;46625;-78
2022/11/11 11:21:56;;;;;;;;;15.50;13.50;;;;;13.55;64.32;102331.59;5014856;28;45541;-77
2022/11/11 11:24:32;;;;;;;;;13.25;12.00;;;;;13.56;64.20;102326.22;5014277;28;45647;-75
2022/11/11 11:27:07;;;;;;;;;14.00;12.75;;;;;13.40;64.34;102296.41;5014855;28;46092;-77
2022/11/11 11:29:38;;;;;;;;;16.25;13.25;;;;;13.61;64.45;102329.44;5014932;28;46787;-77
2022/11/11 11:32:32;;;;;;;;;15.75;12.00;;;;;13.58;64.21;102312.97;5014232;28;46164;-75
2022/11/11 11:35:00;;;;;;;;;9.00;9.00;;;;;13.55;63.96;102300.00;5011526;28;45667;-77
2022/11/11 11:37:26;;;;;;;;;12.75;11.00;;;;;13.45;64.17;102289.97;5014738;28;45699;-75
2022/11/11 11:43:01;;;;;;;;;10.50;10.50;;;;;13.63;64.25;102306.53;5014334;28;45747;-75
2022/11/11 11:45:28;;;;;;;;;13.75;12.50;;;;;13.71;64.29;102314.00;4996465;28;46008;-74
2022/11/11 11:48:18;;;;;;;;;17.75;16.00;;;;;13.74;64.18;102305.91;5014556;28;45832;-76
2022/11/11 11:50:50;;;;;;;;;16.00;16.00;;;;;13.78;64.34;102307.44;5014509;28;45796;-76
2022/11/11 11:53:55;;;;;;;;;12.75;11.25;;;;;13.83;64.20;102295.69;5013792;28;46290;-75
2022/11/11 11:59:55;;;;;;;;;17.75;16.00;;;;;13.84;64.18;102297.38;5014415;28;45641;-78
2022/11/11 12:02:48;;;;;;;;;16.00;13.00;;;;;13.86;63.92;102298.16;5013983;28;45575;-78
2022/11/11 12:05:41;;;;;;;;;13.00;12.00;;;;;13.84;64.24;102284.22;5014078;28;46577;-76
2022/11/11 12:08:28;;;;;;;;;14.50;13.00;;;;;13.85;63.98;102285.91;5013975;28;45879;-76
2022/11/11 12:10:57;;;;;;;;;13.00;12.00;;;;;13.83;64.17;102290.41;5013883;28;45687;-77
2022/11/11 12:13:33;;;;;;;;;16.75;12.25;;;;;13.85;63.87;102291.19;5013546;28;46302;-77
2022/11/11 12:16:10;;;;;;;;;20.50;15.50;;;;;13.83;64.07;102285.16;5013897;28;46072;-75
2022/11/11 12:18:39;;;;;;;;;15.00;14.00;;;;;13.84;64.07;102289.50;5013434;28;45588;-76
2022/11/11 12:21:14;;;;;;;;;19.00;14.00;;;;;13.84;64.19;102280.72;5014027;28;45661;-78
2022/11/11 12:23:57;;;;;;;;;18.75;15.25;;;;;13.84;64.14;102283.38;5013841;28;45679;-77
2022/11/11 12:27:00;;;;;;;;;15.25;14.25;;;;;13.86;64.16;102279.72;4995346;28;48189;-77
2022/11/11 12:29:50;;;;;;;;;15.00;14.00;;;;;13.86;63.95;102277.09;5013663;28;45845;-77
2022/11/11 12:32:34;;;;;;;;;18.50;16.00;;;;;13.87;63.90;102270.84;4995474;28;45989;-77
2022/11/11 12:35:17;;;;;;;;;15.50;14.25;;;;;13.85;64.11;102262.22;5013273;28;47552;-77
2022/11/11 12:38:13;;;;;;;;;15.50;15.00;;;;;13.88;63.86;102271.72;5013441;28;46249;-76
2022/11/11 12:44:04;;;;;;;;;11.50;11.00;;;;;13.87;64.11;102265.59;5013394;28;45497;-77
2022/11/11 12:46:58;;;;;;;;;14.75;12.00;;;;;13.88;64.17;102259.38;5013221;28;46451;-75
2022/11/11 12:49:51;;;;;;;;;12.00;11.00;;;;;13.91;64.09;102249.63;4995530;28;46761;-77
2022/11/11 12:52:34;;;;;;;;;12.25;12.00;;;;;13.91;64.23;102241.72;5013271;28;45850;-76
2022/11/11 12:55:26;;;;;;;;;12.00;12.00;;;;;13.92;64.09;102243.41;5013463;28;45598;-76
2022/11/11 13:01:56;;;;;;;;;11.00;9.00;;;;;13.90;64.17;102224.19;5013261;28;46248;-77
2022/11/11 13:04:37;;;;;;;;;11.00;10.00;;;;;13.94;63.87;102236.25;5013290;28;45830;-78
2022/11/11 13:07:34;;;;;;;;;15.00;13.50;;;;;13.93;63.91;102230.13;5013653;28;45784;-76
2022/11/11 13:10:30;;;;;;;;;16.50;14.50;;;;;13.96;64.02;102229.97;5012864;28;47001;-77
2022/11/11 13:13:02;;;;;;;;;16.75;14.75;;;;;13.96;63.71;102227.31;5013148;28;46070;-77
2022/11/11 13:15:31;;;;;;;;;18.00;17.75;;;;;13.82;63.58;102200.94;5013238;28;45793;-76
2022/11/11 13:17:59;;;;;;;;;11.50;11.25;;;;;13.93;64.01;102216.13;5013010;28;45702;-78
2022/11/11 13:20:28;;;;;;;;;17.00;14.50;;;;;13.98;63.67;102220.16;4995299;28;47453;-77
2022/11/11 13:23:02;;;;;;;;;21.50;18.75;;;;;13.93;64.14;102203.78;5012632;28;46030;-78
2022/11/11 13:25:32;;;;;;;;;20.75;20.00;;;;;14.03;64.19;102215.50;5012564;28;45656;-77
2022/11/11 13:28:05;;;;;;;;;15.00;14.25;;;;;14.05;64.22;102210.97;5012885;28;45529;-78
2022/11/11 13:31:05;;;;;;;;;15.25;13.50;;;;;14.07;63.74;102214.34;5012782;28;46323;-78
2022/11/11 13:33:47;;;;;;;;;12.00;11.25;;;;;14.06;64.08;102204.75;4913137;28;46046;-77
2022/11/11 13:36:16;;;;;;;;;15.75;13.50;;;;;14.10;63.70;102200.97;4913125;28;45737;-76
2022/11/11 13:38:50;;;;;;;;;14.25;13.00;;;;;14.15;63.74;102211.25;4913395;28;45822;-78
2022/11/11 13:44:56;;;;;;;;;11.00;11.00;;;;;14.14;64.06;102197.22;4916183;28;46003;-75